createdAt,value
2023-03-19T00:00:45.114Z,64.00
2023-03-19T00:01:47.490Z,68.10
2023-03-19T00:02:51.398Z,64.20
2023-03-19T00:03:54.296Z,62.20
2023-03-19T00:04:56.700Z,60.70
2023-03-19T00:05:59.638Z,58.00
2023-03-19T00:07:02.127Z,47.91
2023-03-19T00:08:05.738Z,49.60
2023-03-19T00:09:08.612Z,50.70
2023-03-19T00:10:12.716Z,58.00
2023-03-19T00:11:15.172Z,60.40
2023-03-19T00:12:17.654Z,61.50
2023-03-19T00:13:20.414Z,65.60
2023-03-19T00:14:22.836Z,67.73
2023-03-19T00:15:25.588Z,65.50
2023-03-19T00:16:28.118Z,68.00
2023-03-19T00:17:31.409Z,66.90
2023-03-19T00:18:34.205Z,68.60
2023-03-19T00:19:36.669Z,63.40
2023-03-19T00:20:39.086Z,69.50
2023-03-19T00:21:41.962Z,68.40
2023-03-19T00:22:45.273Z,70.00
2023-03-19T00:23:48.703Z,68.50
2023-03-19T00:24:51.789Z,65.30
2023-03-19T00:25:54.424Z,63.20
2023-03-19T00:26:56.993Z,64.27
2023-03-19T00:28:01.064Z,58.50
2023-03-19T00:29:05.353Z,65.90
2023-03-19T00:30:08.806Z,63.40
2023-03-19T00:31:14.788Z,62.45
2023-03-19T00:32:17.062Z,61.70
2023-03-19T00:33:21.228Z,63.30
2023-03-19T00:34:24.147Z,59.50
2023-03-19T00:35:26.615Z,63.60
2023-03-19T00:36:29.789Z,60.30
2023-03-19T00:37:33.137Z,60.00
2023-03-19T00:38:35.958Z,62.20
2023-03-19T00:39:38.814Z,61.90
2023-03-19T00:40:42.133Z,66.45
2023-03-19T00:41:46.956Z,64.82
2023-03-19T00:42:49.336Z,63.20
2023-03-19T00:43:55.669Z,63.60
2023-03-19T00:44:58.426Z,68.10
2023-03-19T00:46:00.804Z,51.80
2023-03-19T00:47:03.043Z,69.50
2023-03-19T00:48:06.077Z,67.70
2023-03-19T00:49:08.421Z,69.90
2023-03-19T00:50:12.267Z,73.60
2023-03-19T00:51:15.443Z,74.80
2023-03-19T00:52:18.216Z,74.70
2023-03-19T00:53:20.976Z,72.10
2023-03-19T00:54:23.380Z,73.45
2023-03-19T00:55:26.830Z,73.30
2023-03-19T00:56:30.012Z,73.90
2023-03-19T00:57:32.323Z,73.30
2023-03-19T00:58:35.954Z,77.40
2023-03-19T00:59:38.128Z,74.20
2023-03-19T01:00:41.470Z,64.10
2023-03-19T01:01:45.918Z,74.90
2023-03-19T01:02:48.755Z,78.20
2023-03-19T01:03:52.592Z,80.30
2023-03-19T01:04:54.945Z,78.30
2023-03-19T01:06:00.037Z,74.30
2023-03-19T01:07:02.566Z,74.60
2023-03-19T01:08:05.840Z,77.00
2023-03-19T01:09:08.201Z,79.20
2023-03-19T01:10:13.025Z,69.60
2023-03-19T01:11:16.655Z,76.10
2023-03-19T01:12:19.335Z,78.60
2023-03-19T01:13:21.724Z,68.20
2023-03-19T01:14:24.907Z,77.00
2023-03-19T01:15:27.330Z,77.00
2023-03-19T01:16:29.981Z,76.00
2023-03-19T01:17:32.810Z,79.60
2023-03-19T01:18:35.680Z,78.00
2023-03-19T01:19:37.980Z,77.40
2023-03-19T01:20:43.518Z,75.70
2023-03-19T01:21:45.762Z,74.70
2023-03-19T01:22:50.349Z,70.10
2023-03-19T01:23:53.673Z,75.50
2023-03-19T01:24:57.603Z,79.70
2023-03-19T01:26:00.399Z,76.30
2023-03-19T01:27:04.292Z,75.50
2023-03-19T01:28:12.403Z,76.90
2023-03-19T01:29:16.195Z,75.90
2023-03-19T01:30:20.083Z,74.55
2023-03-19T01:31:26.999Z,78.40
2023-03-19T01:32:48.026Z,78.20
2023-03-19T01:34:05.208Z,80.40
2023-03-19T01:35:11.092Z,75.10
2023-03-19T01:36:14.004Z,76.70
2023-03-19T01:37:24.167Z,77.60
2023-03-19T01:38:28.229Z,78.20
2023-03-19T01:39:33.611Z,78.10
2023-03-19T01:40:46.955Z,76.30
2023-03-19T01:41:50.036Z,77.20
2023-03-19T01:43:18.803Z,72.90
2023-03-19T01:44:31.951Z,74.00
2023-03-19T01:45:56.637Z,64.00
2023-03-19T01:47:26.082Z,73.60
2023-03-19T01:48:50.134Z,77.20
2023-03-19T01:49:56.485Z,73.70
2023-03-19T01:52:10.393Z,74.20
2023-03-19T01:53:27.440Z,69.90
2023-03-19T01:54:39.366Z,70.70
2023-03-19T01:55:56.350Z,71.80
2023-03-19T01:57:16.941Z,75.20
2023-03-19T01:58:26.123Z,66.80
2023-03-19T01:59:51.961Z,70.80
2023-03-19T02:01:03.909Z,72.50
2023-03-19T02:02:14.538Z,73.40
2023-03-19T02:03:17.288Z,71.40
2023-03-19T02:04:24.112Z,71.10
2023-03-19T02:05:26.527Z,71.10
2023-03-19T02:06:32.575Z,69.90
2023-03-19T02:07:36.714Z,68.50
2023-03-19T02:08:40.323Z,71.70
2023-03-19T02:09:45.169Z,69.20
2023-03-19T02:10:47.786Z,71.10
2023-03-19T02:11:51.088Z,70.82
2023-03-19T02:12:53.792Z,71.18
2023-03-19T02:13:57.283Z,71.00
2023-03-19T02:14:59.806Z,73.20
2023-03-19T02:16:03.737Z,71.00
2023-03-19T02:17:08.059Z,66.60
2023-03-19T02:18:11.197Z,72.30
2023-03-19T02:19:21.168Z,65.90
2023-03-19T02:20:33.262Z,71.30
2023-03-19T02:21:36.007Z,68.20
2023-03-19T02:22:41.911Z,72.40
2023-03-19T02:24:03.149Z,71.30
2023-03-19T02:25:20.354Z,72.80
2023-03-19T02:26:26.871Z,68.30
2023-03-19T02:27:32.286Z,73.60
2023-03-19T02:28:38.330Z,73.70
2023-03-19T02:29:41.007Z,71.90
2023-03-19T02:30:45.233Z,76.09
2023-03-19T02:31:47.560Z,69.60
2023-03-19T02:32:49.890Z,71.20
2023-03-19T02:34:01.022Z,74.40
2023-03-19T02:35:03.782Z,74.90
2023-03-19T02:36:10.033Z,75.80
2023-03-19T02:37:27.959Z,69.60
2023-03-19T02:38:33.420Z,72.20
2023-03-19T02:39:58.791Z,73.20
2023-03-19T02:41:04.485Z,71.30
2023-03-19T02:42:09.421Z,71.30
2023-03-19T02:43:12.131Z,71.10
2023-03-19T02:44:15.221Z,73.20
2023-03-19T02:45:18.266Z,74.30
2023-03-19T02:46:20.790Z,69.64
2023-03-19T02:47:24.213Z,56.80
2023-03-19T02:48:26.676Z,46.70
2023-03-19T02:49:28.990Z,69.90
2023-03-19T02:50:32.432Z,68.91
2023-03-19T02:51:36.931Z,70.64
2023-03-19T02:52:39.360Z,68.90
2023-03-19T02:53:41.505Z,68.00
2023-03-19T02:54:44.420Z,69.60
2023-03-19T02:55:47.390Z,71.18
2023-03-19T02:56:51.820Z,66.70
2023-03-19T02:57:55.299Z,33.20
2023-03-19T02:58:57.748Z,67.90
2023-03-19T03:00:00.132Z,66.40
2023-03-19T03:01:03.689Z,67.00
2023-03-19T03:02:06.873Z,65.90
2023-03-19T03:03:09.867Z,67.70
2023-03-19T03:04:14.214Z,63.36
2023-03-19T03:05:16.830Z,64.00
2023-03-19T03:06:19.322Z,67.10
2023-03-19T03:07:22.397Z,66.90
2023-03-19T03:08:24.694Z,71.80
2023-03-19T03:09:27.153Z,62.40
2023-03-19T03:10:30.448Z,62.30
2023-03-19T03:11:32.907Z,67.40
2023-03-19T03:12:36.083Z,65.40
2023-03-19T03:13:38.704Z,64.00
2023-03-19T03:14:41.284Z,63.10
2023-03-19T03:15:44.165Z,66.00
2023-03-19T03:16:46.703Z,57.10
2023-03-19T03:17:48.962Z,65.20
2023-03-19T03:18:51.451Z,62.20
2023-03-19T03:19:55.142Z,66.00
2023-03-19T03:20:57.852Z,63.91
2023-03-19T03:22:00.936Z,62.10
2023-03-19T03:23:04.745Z,55.30
2023-03-19T03:24:08.844Z,63.70
2023-03-19T03:25:12.415Z,60.90
2023-03-19T03:26:15.212Z,68.10
2023-03-19T03:27:18.563Z,64.10
2023-03-19T03:28:20.863Z,63.60
2023-03-19T03:29:23.196Z,64.70
2023-03-19T03:30:26.269Z,62.60
2023-03-19T03:31:29.372Z,65.09
2023-03-19T03:32:32.896Z,62.55
2023-03-19T03:33:35.833Z,63.10
2023-03-19T03:34:38.942Z,60.36
2023-03-19T03:35:41.284Z,54.20
2023-03-19T03:36:45.757Z,52.40
2023-03-19T03:37:49.825Z,51.00
2023-03-19T03:38:52.297Z,48.30
2023-03-19T03:39:54.742Z,49.40
2023-03-19T03:40:58.189Z,24.80
2023-03-19T03:42:01.479Z,48.00
2023-03-19T03:43:04.882Z,51.90
2023-03-19T03:44:09.645Z,46.90
2023-03-19T03:45:13.887Z,51.80
2023-03-19T03:46:17.260Z,47.64
2023-03-19T03:47:20.981Z,54.40
2023-03-19T03:48:23.548Z,48.00
2023-03-19T03:49:26.510Z,49.40
2023-03-19T03:50:29.005Z,50.10
2023-03-19T03:51:32.798Z,41.30
2023-03-19T03:52:35.602Z,46.30
2023-03-19T03:53:38.111Z,50.70
2023-03-19T03:54:41.421Z,44.70
2023-03-19T03:55:43.774Z,43.90
2023-03-19T03:56:47.162Z,43.40
2023-03-19T03:57:49.662Z,36.50
2023-03-19T03:58:52.370Z,40.30
2023-03-19T03:59:55.122Z,41.60
2023-03-19T04:00:58.056Z,38.90
2023-03-19T04:02:01.038Z,37.10
2023-03-19T04:03:03.750Z,38.50
2023-03-19T04:04:06.041Z,33.00
2023-03-19T04:05:09.329Z,32.30
2023-03-19T04:06:18.122Z,31.00
2023-03-19T04:07:24.530Z,31.00
2023-03-19T04:08:28.709Z,40.60
2023-03-19T04:09:30.920Z,46.10
2023-03-19T04:10:36.140Z,43.00
2023-03-19T04:11:40.929Z,49.50
2023-03-19T04:12:45.339Z,52.20
2023-03-19T04:13:47.567Z,45.30
2023-03-19T04:14:50.617Z,44.64
2023-03-19T04:15:54.004Z,39.70
2023-03-19T04:16:57.260Z,44.80
2023-03-19T04:18:00.844Z,44.40
2023-03-19T04:19:03.965Z,48.90
2023-03-19T04:20:07.542Z,46.90
2023-03-19T04:21:09.843Z,49.40
2023-03-19T04:22:12.294Z,44.90
2023-03-19T04:23:14.882Z,40.10
2023-03-19T04:24:17.243Z,46.30
2023-03-19T04:25:20.117Z,47.10
2023-03-19T04:26:22.724Z,42.73
2023-03-19T04:27:25.380Z,41.30
2023-03-19T04:28:28.785Z,34.40
2023-03-19T04:29:31.518Z,36.00
2023-03-19T04:30:35.668Z,27.40
2023-03-19T04:31:38.735Z,39.20
2023-03-19T04:32:41.192Z,38.20
2023-03-19T04:33:43.948Z,20.50
2023-03-19T04:34:48.019Z,40.60
2023-03-19T04:35:50.579Z,37.90
2023-03-19T04:36:53.702Z,40.90
2023-03-19T04:37:56.387Z,41.80
2023-03-19T04:38:58.823Z,44.10
2023-03-19T04:40:01.688Z,45.30
2023-03-19T04:41:06.613Z,44.60
2023-03-19T04:42:11.006Z,50.90
2023-03-19T04:43:15.363Z,47.00
2023-03-19T04:44:19.442Z,47.20
2023-03-19T04:45:21.948Z,50.60
2023-03-19T04:46:24.598Z,49.10
2023-03-19T04:47:26.998Z,47.60
2023-03-19T04:48:31.684Z,53.30
2023-03-19T04:49:34.666Z,51.80
2023-03-19T04:50:38.911Z,50.30
2023-03-19T04:51:42.775Z,54.50
2023-03-19T04:52:45.738Z,48.60
2023-03-19T04:53:49.849Z,52.00
2023-03-19T04:54:52.355Z,55.80
2023-03-19T04:55:55.464Z,54.20
2023-03-19T04:56:58.363Z,43.70
2023-03-19T04:58:02.199Z,61.20
2023-03-19T04:59:06.170Z,55.80
2023-03-19T05:00:10.306Z,58.00
2023-03-19T05:01:13.993Z,59.90
2023-03-19T05:02:18.497Z,58.30
2023-03-19T05:03:21.449Z,59.80
2023-03-19T05:04:24.331Z,59.00
2023-03-19T05:05:28.511Z,58.70
2023-03-19T05:06:32.221Z,64.10
2023-03-19T05:07:34.719Z,56.18
2023-03-19T05:08:38.242Z,59.30
2023-03-19T05:09:42.913Z,57.30
2023-03-19T05:10:45.499Z,61.80
2023-03-19T05:11:47.932Z,59.00
2023-03-19T05:12:52.755Z,60.10
2023-03-19T05:13:55.352Z,56.60
2023-03-19T05:14:58.409Z,58.45
2023-03-19T05:16:03.163Z,60.40
2023-03-19T05:17:07.093Z,62.20
2023-03-19T05:18:12.414Z,65.30
2023-03-19T05:19:16.869Z,57.70
2023-03-19T05:20:20.356Z,67.18
2023-03-19T05:21:26.179Z,63.70
2023-03-19T05:22:28.528Z,60.50
2023-03-19T05:23:31.856Z,67.30
2023-03-19T05:24:38.884Z,65.20
2023-03-19T05:25:41.209Z,63.60
2023-03-19T05:26:45.806Z,61.30
2023-03-19T05:27:58.596Z,66.60
2023-03-19T05:29:01.534Z,66.50
2023-03-19T05:30:07.353Z,64.90
2023-03-19T05:31:26.967Z,65.40
2023-03-19T05:32:30.317Z,67.80
2023-03-19T05:33:34.881Z,68.30
2023-03-19T05:34:37.327Z,67.50
2023-03-19T05:35:40.071Z,68.60
2023-03-19T05:36:44.389Z,63.00
2023-03-19T05:37:48.586Z,65.90
2023-03-19T05:38:50.792Z,66.20
2023-03-19T05:39:55.155Z,75.20
2023-03-19T05:41:03.884Z,72.70
2023-03-19T05:42:08.344Z,74.90
2023-03-19T05:43:11.635Z,71.20
2023-03-19T05:44:14.767Z,76.60
2023-03-19T05:45:36.722Z,75.50
2023-03-19T05:46:42.180Z,74.40
2023-03-19T05:47:49.526Z,78.60
2023-03-19T05:48:52.355Z,79.60
2023-03-19T05:49:55.017Z,78.20
2023-03-19T05:50:58.815Z,79.73
2023-03-19T05:52:03.546Z,81.00
2023-03-19T05:53:06.442Z,88.40
2023-03-19T05:54:09.935Z,81.50
2023-03-19T05:55:14.355Z,81.40
2023-03-19T05:56:18.909Z,81.80
2023-03-19T05:57:26.280Z,84.10
2023-03-19T05:58:31.584Z,83.60
2023-03-19T05:59:34.890Z,86.20
2023-03-19T06:00:41.060Z,78.70
2023-03-19T06:01:43.601Z,80.80
2023-03-19T06:02:46.400Z,84.60
2023-03-19T06:03:53.718Z,57.40
2023-03-19T06:04:57.326Z,76.60
2023-03-19T06:06:01.633Z,83.00
2023-03-19T06:07:09.078Z,68.40
2023-03-19T06:08:12.085Z,80.00
2023-03-19T06:09:31.412Z,82.70
2023-03-19T06:10:35.993Z,78.73
2023-03-19T06:11:42.412Z,76.10
2023-03-19T06:12:47.220Z,81.40
2023-03-19T06:13:51.685Z,75.70
2023-03-19T06:14:54.240Z,73.60
2023-03-19T06:16:14.128Z,79.10
2023-03-19T06:17:18.474Z,73.70
2023-03-19T06:18:21.822Z,77.45
2023-03-19T06:19:24.425Z,73.64
2023-03-19T06:20:28.540Z,72.90
2023-03-19T06:21:32.078Z,70.20
2023-03-19T06:22:37.517Z,68.70
2023-03-19T06:23:41.343Z,73.70
2023-03-19T06:24:44.307Z,66.00
2023-03-19T06:25:46.644Z,71.40
2023-03-19T06:26:49.641Z,77.90
2023-03-19T06:27:52.527Z,81.30
2023-03-19T06:28:56.860Z,76.90
2023-03-19T06:29:59.414Z,76.40
2023-03-19T06:31:04.129Z,76.60
2023-03-19T06:32:25.118Z,80.30
2023-03-19T06:33:30.378Z,82.30
2023-03-19T06:34:32.676Z,80.70
2023-03-19T06:35:35.099Z,77.90
2023-03-19T06:36:39.070Z,82.82
2023-03-19T06:37:43.513Z,84.70
2023-03-19T06:38:46.148Z,81.20
2023-03-19T06:39:48.921Z,82.40
2023-03-19T06:40:52.347Z,81.36
2023-03-19T06:41:57.326Z,79.30
2023-03-19T06:43:01.141Z,79.80
2023-03-19T06:44:05.365Z,73.30
2023-03-19T06:45:08.593Z,76.40
2023-03-19T06:46:11.969Z,69.40
2023-03-19T06:47:15.933Z,71.10
2023-03-19T06:48:18.727Z,67.60
2023-03-19T06:49:21.479Z,65.40
2023-03-19T06:50:24.568Z,61.20
2023-03-19T06:51:30.060Z,63.50
2023-03-19T06:52:32.374Z,71.50
2023-03-19T06:53:35.014Z,64.70
2023-03-19T06:54:38.465Z,59.90
2023-03-19T06:55:41.349Z,62.40
2023-03-19T06:56:44.338Z,57.10
2023-03-19T06:57:52.762Z,59.10
2023-03-19T06:58:56.776Z,56.50
2023-03-19T07:00:00.367Z,58.20
2023-03-19T07:01:03.100Z,54.40
2023-03-19T07:02:06.129Z,58.10
2023-03-19T07:03:10.375Z,54.80
2023-03-19T07:04:12.819Z,41.80
2023-03-19T07:05:15.261Z,52.10
2023-03-19T07:06:17.555Z,49.30
2023-03-19T07:07:20.608Z,46.78
2023-03-19T07:08:23.353Z,50.55
2023-03-19T07:09:27.261Z,41.50
2023-03-19T07:10:31.115Z,50.50
2023-03-19T07:11:35.831Z,46.30
2023-03-19T07:12:37.732Z,50.40
2023-03-19T07:13:41.825Z,41.00
2023-03-19T07:14:44.353Z,56.50
2023-03-19T07:15:47.020Z,39.40
2023-03-19T07:16:49.429Z,48.10
2023-03-19T07:17:51.888Z,42.00
2023-03-19T07:18:54.265Z,39.10
2023-03-19T07:19:56.631Z,46.10
2023-03-19T07:20:59.553Z,50.00
2023-03-19T07:22:01.866Z,45.70
2023-03-19T07:23:04.141Z,41.20
2023-03-19T07:24:07.493Z,47.80
2023-03-19T07:25:10.332Z,44.80
2023-03-19T07:26:13.206Z,32.55
2023-03-19T07:27:15.950Z,47.55
2023-03-19T07:28:18.432Z,49.50
2023-03-19T07:29:20.912Z,47.10
2023-03-19T07:30:23.878Z,43.60
2023-03-19T07:31:27.527Z,48.50
2023-03-19T07:32:32.645Z,40.90
2023-03-19T07:33:35.530Z,39.80
2023-03-19T07:34:37.970Z,39.70
2023-03-19T07:35:40.412Z,40.40
2023-03-19T07:36:43.042Z,34.00
2023-03-19T07:37:45.844Z,37.50
2023-03-19T07:38:48.250Z,8.40
2023-03-19T07:39:50.728Z,37.60
2023-03-19T07:41:01.880Z,41.10
2023-03-19T07:41:59.691Z,37.00
2023-03-19T07:43:03.859Z,30.50
2023-03-19T07:44:07.840Z,32.30
2023-03-19T07:45:11.469Z,32.60
2023-03-19T07:46:14.230Z,39.50
2023-03-19T07:47:28.551Z,32.20
2023-03-19T07:48:21.227Z,32.50
2023-03-19T07:49:24.083Z,37.40
2023-03-19T07:50:27.645Z,34.55
2023-03-19T07:51:30.060Z,36.50
2023-03-19T07:52:32.972Z,36.40
2023-03-19T07:53:36.245Z,35.73
2023-03-19T07:54:38.377Z,30.60
2023-03-19T07:55:42.937Z,36.20
2023-03-19T07:56:45.417Z,34.10
2023-03-19T07:57:47.950Z,31.20
2023-03-19T07:58:51.176Z,27.20
2023-03-19T07:59:54.004Z,21.80
2023-03-19T08:00:56.538Z,23.30
2023-03-19T08:01:59.294Z,31.30
2023-03-19T08:03:02.296Z,19.18
2023-03-19T08:04:05.165Z,20.55
2023-03-19T08:05:09.076Z,21.64
2023-03-19T08:06:12.766Z,21.20
2023-03-19T08:07:15.717Z,21.30
2023-03-19T08:08:19.680Z,22.45
2023-03-19T08:09:22.974Z,20.20
2023-03-19T08:10:25.611Z,19.00
2023-03-19T08:11:29.330Z,20.40
2023-03-19T08:12:33.736Z,19.30
2023-03-19T08:13:37.077Z,21.40
2023-03-19T08:14:39.914Z,22.50
2023-03-19T08:15:42.253Z,22.80
2023-03-19T08:16:44.942Z,22.50
2023-03-19T08:17:50.633Z,26.40
2023-03-19T08:18:54.143Z,29.50
2023-03-19T08:19:57.618Z,26.00
2023-03-19T08:21:02.193Z,34.20
2023-03-19T08:22:06.424Z,26.70
2023-03-19T08:23:10.028Z,18.90
2023-03-19T08:24:12.933Z,17.70
2023-03-19T08:25:15.780Z,13.73
2023-03-19T08:26:18.200Z,20.91
2023-03-19T08:27:20.856Z,7.70
2023-03-19T08:28:23.514Z,18.90
2023-03-19T08:29:27.118Z,17.50
2023-03-19T08:30:29.916Z,11.70
2023-03-19T08:31:33.085Z,13.91
2023-03-19T08:32:37.500Z,16.20
2023-03-19T08:33:41.748Z,16.50
2023-03-19T08:34:44.185Z,10.50
2023-03-19T08:35:46.580Z,8.20
2023-03-19T08:36:49.798Z,15.18
2023-03-19T08:37:53.140Z,11.36
2023-03-19T08:38:55.945Z,13.40
2023-03-19T08:39:59.792Z,13.20
2023-03-19T08:41:03.690Z,11.60
2023-03-19T08:42:06.765Z,14.20
2023-03-19T08:43:11.075Z,5.10
2023-03-19T08:44:13.669Z,12.30
2023-03-19T08:45:16.431Z,13.00
2023-03-19T08:46:19.234Z,16.73
2023-03-19T08:47:23.475Z,11.80
2023-03-19T08:48:27.707Z,13.00
2023-03-19T08:49:30.727Z,14.60
2023-03-19T08:50:33.682Z,17.50
2023-03-19T08:51:36.346Z,15.09
2023-03-19T08:52:38.683Z,13.90
2023-03-19T08:53:41.062Z,16.50
2023-03-19T08:54:43.790Z,18.60
2023-03-19T08:55:51.820Z,15.90
2023-03-19T08:56:54.289Z,14.20
2023-03-19T08:57:56.908Z,12.90
2023-03-19T08:58:59.396Z,18.70
2023-03-19T09:00:05.051Z,15.00
2023-03-19T09:01:10.380Z,11.70
2023-03-19T09:02:13.283Z,13.50
2023-03-19T09:03:17.303Z,14.36
2023-03-19T09:04:21.434Z,19.10
2023-03-19T09:05:23.843Z,18.50
2023-03-19T09:06:26.980Z,14.20
2023-03-19T09:07:29.890Z,15.70
2023-03-19T09:08:33.598Z,15.64
2023-03-19T09:09:37.200Z,14.70
2023-03-19T09:10:40.964Z,15.20
2023-03-19T09:11:43.417Z,19.00
2023-03-19T09:12:48.437Z,18.80
2023-03-19T09:13:50.497Z,14.10
2023-03-19T09:14:54.020Z,14.50
2023-03-19T09:15:56.621Z,15.90
2023-03-19T09:16:59.422Z,16.60
2023-03-19T09:18:02.838Z,14.20
2023-03-19T09:19:05.249Z,17.10
2023-03-19T09:20:09.775Z,17.40
2023-03-19T09:21:13.302Z,19.80
2023-03-19T09:22:15.707Z,15.00
2023-03-19T09:23:18.522Z,14.60
2023-03-19T09:24:22.132Z,16.82
2023-03-19T09:25:26.339Z,20.30
2023-03-19T09:26:28.783Z,16.60
2023-03-19T09:27:32.485Z,14.20
2023-03-19T09:28:35.910Z,17.30
2023-03-19T09:29:38.621Z,18.70
2023-03-19T09:30:42.012Z,17.45
2023-03-19T09:31:44.580Z,16.80
2023-03-19T09:32:47.103Z,20.40
2023-03-19T09:33:49.799Z,19.10
2023-03-19T09:34:52.787Z,19.90
2023-03-19T09:35:56.454Z,18.80
2023-03-19T09:36:59.628Z,17.80
2023-03-19T09:38:03.209Z,15.82
2023-03-19T09:39:07.977Z,22.20
2023-03-19T09:40:17.241Z,15.90
2023-03-19T09:41:52.444Z,18.50
2023-03-19T09:43:06.993Z,17.60
2023-03-19T09:44:35.479Z,17.60
2023-03-19T09:45:38.443Z,22.60
2023-03-19T09:47:06.124Z,20.10
2023-03-19T09:48:12.654Z,22.00
2023-03-19T09:49:30.328Z,22.60
2023-03-19T09:50:34.519Z,19.60
2023-03-19T09:51:47.398Z,22.30
2023-03-19T09:53:06.016Z,18.50
2023-03-19T09:54:16.285Z,15.40
2023-03-19T09:55:45.138Z,25.10
2023-03-19T09:56:48.171Z,16.60
2023-03-19T09:57:53.454Z,24.55
2023-03-19T09:58:56.684Z,19.60
2023-03-19T09:59:59.039Z,24.50
2023-03-19T10:01:02.280Z,17.20
2023-03-19T10:02:26.298Z,26.80
2023-03-19T10:03:51.782Z,20.60
2023-03-19T10:05:13.646Z,22.30
2023-03-19T10:06:33.093Z,24.90
2023-03-19T10:07:41.965Z,20.80
2023-03-19T10:09:18.793Z,23.30
2023-03-19T10:10:38.178Z,21.20
2023-03-19T10:12:08.789Z,20.10
2023-03-19T10:13:23.889Z,31.60
2023-03-19T10:14:56.940Z,26.60
2023-03-19T10:16:01.246Z,26.30
2023-03-19T10:17:08.086Z,23.80
2023-03-19T10:18:20.192Z,23.00
2023-03-19T10:19:26.121Z,20.60
2023-03-19T10:20:33.451Z,19.10
2023-03-19T10:21:45.035Z,22.10
2023-03-19T10:22:51.072Z,24.30
2023-03-19T10:24:04.008Z,28.40
2023-03-19T10:25:12.990Z,20.90
2023-03-19T10:26:21.051Z,21.30
2023-03-19T10:27:27.991Z,21.30
2023-03-19T10:28:32.055Z,25.40
2023-03-19T10:29:36.147Z,20.30
2023-03-19T10:30:41.836Z,23.20
2023-03-19T10:31:54.204Z,21.50
2023-03-19T10:33:24.600Z,16.50
2023-03-19T10:34:36.818Z,23.00
2023-03-19T10:35:42.902Z,20.10
2023-03-19T10:36:45.601Z,24.90
2023-03-19T10:37:50.347Z,23.50
2023-03-19T10:38:52.913Z,24.20
2023-03-19T10:40:00.796Z,21.00
2023-03-19T10:41:13.510Z,20.10
2023-03-19T10:42:40.245Z,20.80
2023-03-19T10:43:46.249Z,28.90
2023-03-19T10:44:52.194Z,19.00
2023-03-19T10:45:56.998Z,21.60
2023-03-19T10:47:02.924Z,23.00
2023-03-19T10:48:06.196Z,23.40
2023-03-19T10:49:14.507Z,26.40
2023-03-19T10:50:22.934Z,19.90
2023-03-19T10:51:26.914Z,21.50
2023-03-19T10:52:33.307Z,22.50
2023-03-19T10:53:38.105Z,19.80
2023-03-19T10:54:45.552Z,21.50
2023-03-19T10:56:03.977Z,10.30
2023-03-19T10:57:08.179Z,24.90
2023-03-19T10:58:20.091Z,25.90
2023-03-19T10:59:26.278Z,23.30
2023-03-19T11:00:32.111Z,20.80
2023-03-19T11:01:37.898Z,20.60
2023-03-19T11:02:49.713Z,23.00
2023-03-19T11:03:58.871Z,22.70
2023-03-19T11:05:12.005Z,20.90
2023-03-19T11:06:20.685Z,19.80
2023-03-19T11:07:26.845Z,16.90
2023-03-19T11:08:35.784Z,19.90
2023-03-19T11:09:39.469Z,17.90
2023-03-19T11:10:47.979Z,16.80
2023-03-19T11:11:56.795Z,20.90
2023-03-19T11:13:08.669Z,19.70
2023-03-19T11:14:17.328Z,21.90
2023-03-19T11:15:26.077Z,16.70
2023-03-19T11:16:28.598Z,20.60
2023-03-19T11:17:40.650Z,17.60
2023-03-19T11:18:47.546Z,15.40
2023-03-19T11:19:58.924Z,19.30
2023-03-19T11:21:08.826Z,16.60
2023-03-19T11:22:25.637Z,22.60
2023-03-19T11:23:30.143Z,17.60
2023-03-19T11:24:35.026Z,18.40
2023-03-19T11:25:44.109Z,19.20
2023-03-19T11:26:51.067Z,18.60
2023-03-19T11:28:03.047Z,22.30
2023-03-19T11:29:06.032Z,20.40
2023-03-19T11:30:20.438Z,19.40
2023-03-19T11:33:09.140Z,21.50
2023-03-19T11:34:33.469Z,16.80
2023-03-19T11:35:40.269Z,19.20
2023-03-19T11:36:58.883Z,21.20
2023-03-19T11:38:04.384Z,18.50
2023-03-19T11:39:30.014Z,15.70
2023-03-19T11:41:02.101Z,20.50
2023-03-19T11:42:34.083Z,22.40
2023-03-19T11:43:49.524Z,25.36
2023-03-19T11:45:05.157Z,24.20
2023-03-19T11:46:24.099Z,22.80
2023-03-19T11:47:37.067Z,23.10
2023-03-19T11:49:02.983Z,17.90
2023-03-19T11:50:29.252Z,18.20
2023-03-19T11:51:44.892Z,24.20
2023-03-19T11:53:18.011Z,26.20
2023-03-19T11:54:23.904Z,16.50
2023-03-19T11:55:38.335Z,24.60
2023-03-19T11:56:50.154Z,27.60
2023-03-19T11:58:01.803Z,22.00
2023-03-19T11:59:28.746Z,25.90
2023-03-19T12:00:52.612Z,24.00
2023-03-19T12:02:18.392Z,22.40
2023-03-19T12:04:59.699Z,23.10
2023-03-19T12:06:15.180Z,21.10
2023-03-19T12:07:38.757Z,24.70
2023-03-19T12:08:45.524Z,22.00
2023-03-19T12:09:52.523Z,25.10
2023-03-19T12:11:19.252Z,25.90
2023-03-19T12:12:29.254Z,22.10
2023-03-19T12:13:41.836Z,25.00
2023-03-19T12:14:50.802Z,20.00
2023-03-19T12:16:10.195Z,23.10
2023-03-19T12:17:44.894Z,19.00
2023-03-19T12:18:57.750Z,20.50
2023-03-19T12:20:32.082Z,22.60
2023-03-19T12:23:28.909Z,23.80
2023-03-19T12:24:57.793Z,20.70
2023-03-19T12:26:08.178Z,23.70
2023-03-19T12:27:38.874Z,28.60
2023-03-19T12:29:02.814Z,29.80
2023-03-19T12:30:24.870Z,37.30
2023-03-19T12:31:34.450Z,29.20
2023-03-19T12:33:01.763Z,36.20
2023-03-19T12:34:13.210Z,27.30
2023-03-19T12:35:19.216Z,29.80
2023-03-19T12:36:25.510Z,33.90
2023-03-19T12:37:32.301Z,26.90
2023-03-19T12:38:38.544Z,29.10
2023-03-19T12:39:45.033Z,30.60
2023-03-19T12:40:51.086Z,23.20
2023-03-19T12:41:57.727Z,31.30
2023-03-19T12:43:03.655Z,22.70
2023-03-19T12:44:22.630Z,25.40
2023-03-19T12:45:37.481Z,24.20
2023-03-19T12:46:47.368Z,28.00
2023-03-19T12:47:53.299Z,27.70
2023-03-19T12:49:15.237Z,29.30
2023-03-19T12:50:19.767Z,23.00
2023-03-19T12:51:26.126Z,23.70
2023-03-19T12:52:40.753Z,21.20
2023-03-19T12:53:47.865Z,25.40
2023-03-19T12:54:56.808Z,25.50
2023-03-19T12:56:02.719Z,19.30
2023-03-19T12:57:11.689Z,24.90
2023-03-19T12:58:48.018Z,24.30
2023-03-19T13:00:04.318Z,26.60
2023-03-19T13:01:12.394Z,31.00
2023-03-19T13:02:24.157Z,29.90
2023-03-19T13:03:39.106Z,28.60
2023-03-19T13:04:57.982Z,30.90
2023-03-19T13:06:10.109Z,28.50
2023-03-19T13:07:23.904Z,26.30
2023-03-19T13:08:41.871Z,24.00
2023-03-19T13:09:59.878Z,27.70
2023-03-19T13:11:05.809Z,26.00
2023-03-19T13:12:27.487Z,23.20
2023-03-19T13:13:43.914Z,24.10
2023-03-19T13:15:01.370Z,24.20
2023-03-19T13:16:10.272Z,28.30
2023-03-19T13:17:31.399Z,25.20
2023-03-19T13:18:42.164Z,27.40
2023-03-19T13:19:53.806Z,24.30
2023-03-19T13:21:15.173Z,26.50
2023-03-19T13:22:21.142Z,24.30
2023-03-19T13:23:27.162Z,31.50
2023-03-19T13:24:33.404Z,30.10
2023-03-19T13:25:42.457Z,25.90
2023-03-19T13:26:46.716Z,26.40
2023-03-19T13:27:55.793Z,24.30
2023-03-19T13:29:04.555Z,24.60
2023-03-19T13:30:14.409Z,24.70
2023-03-19T13:31:23.401Z,27.20
2023-03-19T13:32:33.321Z,23.20
2023-03-19T13:33:40.584Z,28.50
2023-03-19T13:34:42.991Z,26.10
2023-03-19T13:35:52.373Z,24.10
2023-03-19T13:37:02.241Z,25.90
2023-03-19T13:38:10.965Z,28.40
2023-03-19T13:39:20.756Z,26.20
2023-03-19T13:40:39.600Z,26.70
2023-03-19T13:41:45.576Z,24.80
2023-03-19T13:42:53.300Z,25.80
2023-03-19T13:43:56.395Z,27.70
2023-03-19T13:45:21.422Z,27.70
2023-03-19T13:46:30.444Z,25.00
2023-03-19T13:47:38.293Z,29.10
2023-03-19T13:48:52.482Z,26.80
2023-03-19T13:50:22.521Z,23.70
2023-03-19T13:51:29.034Z,24.10
2023-03-19T13:52:35.686Z,25.00
2023-03-19T13:53:41.916Z,21.40
2023-03-19T13:56:28.659Z,22.60
2023-03-19T13:57:21.929Z,25.80
2023-03-19T13:58:49.647Z,23.10
2023-03-19T13:59:52.063Z,25.40
2023-03-19T14:00:58.518Z,22.00
2023-03-19T14:02:22.374Z,26.20
2023-03-19T14:03:34.007Z,24.30
2023-03-19T14:04:38.703Z,22.20
2023-03-19T14:05:43.321Z,28.20
2023-03-19T14:06:50.524Z,24.70
2023-03-19T14:07:54.832Z,28.60
2023-03-19T14:08:57.415Z,26.00
2023-03-19T14:10:04.745Z,25.50
2023-03-19T14:11:08.802Z,26.50
2023-03-19T14:12:28.228Z,26.40
2023-03-19T14:13:40.294Z,25.80
2023-03-19T14:14:46.121Z,24.30
2023-03-19T14:15:51.195Z,25.70
2023-03-19T14:16:55.498Z,18.70
2023-03-19T14:18:02.406Z,26.60
2023-03-19T14:19:08.816Z,28.90
2023-03-19T14:20:16.728Z,23.90
2023-03-19T14:21:36.071Z,20.60
2023-03-19T14:22:42.108Z,24.60
2023-03-19T14:23:54.989Z,28.40
2023-03-19T14:25:17.671Z,18.90
2023-03-19T14:26:29.431Z,22.40